Time;durP1;ratioP1;P1;durP2;ratioP2;P2;SDS_P1;SDS_P2;PMS_P1;PMS_P2;Temp;Humidity;BMP_temperature;BMP_pressure;BME280_temperature;BME280_humidity;BME280_pressure;Samples;Min_cycle;Max_cycle;Signal;HPM_P1;HPM_P2
2022/05/20 00:00:41;;;;;;;11.45;10.15;;;14.50;99.90;;;;;;5043612;28;20072;-67
2022/05/20 00:03:07;;;;;;;13.73;10.20;;;14.50;99.90;;;;;;5045614;28;20049;-67
2022/05/20 00:05:33;;;;;;;10.93;9.82;;;14.50;99.90;;;;;;5023576;28;20053;-67
2022/05/20 00:07:59;;;;;;;10.15;8.23;;;14.40;99.90;;;;;;5029601;28;20084;-67
2022/05/20 00:10:27;;;;;;;11.35;8.68;;;14.30;99.90;;;;;;5027422;28;20521;-68
2022/05/20 00:12:53;;;;;;;13.60;8.95;;;14.30;99.90;;;;;;5026299;28;20061;-67
2022/05/20 00:15:21;;;;;;;11.02;8.93;;;14.40;99.90;;;;;;5060476;28;20045;-67
2022/05/20 00:17:47;;;;;;;10.85;8.98;;;14.40;99.90;;;;;;5028334;28;20552;-67
2022/05/20 00:20:16;;;;;;;10.73;8.52;;;14.40;99.90;;;;;;5031090;28;20050;-67
2022/05/20 00:22:41;;;;;;;10.38;8.00;;;14.30;99.90;;;;;;5044608;28;20101;-67
2022/05/20 00:27:53;;;;;;;8.77;7.25;;;14.20;99.90;;;;;;5018086;28;20049;-67
2022/05/20 00:30:20;;;;;;;9.20;8.27;;;14.10;99.90;;;;;;5043204;28;20398;-67
2022/05/20 00:32:45;;;;;;;10.30;8.00;;;14.20;99.90;;;;;;5033885;28;20063;-67
2022/05/20 00:35:13;;;;;;;11.27;7.88;;;14.20;99.90;;;;;;5022893;28;20054;-67
2022/05/20 00:37:40;;;;;;;12.13;8.25;;;14.20;99.90;;;;;;5031347;28;20067;-67
2022/05/20 00:40:08;;;;;;;9.82;7.38;;;14.10;99.90;;;;;;5030710;28;20060;-67
2022/05/20 00:42:35;;;;;;;9.57;7.43;;;14.10;99.90;;;;;;5026670;28;20081;-68
2022/05/20 00:45:03;;;;;;;9.32;7.68;;;14.10;99.90;;;;;;5027890;28;20060;-67
2022/05/20 00:47:29;;;;;;;9.35;7.65;;;14.10;99.90;;;;;;5044888;28;20050;-67
2022/05/20 00:49:58;;;;;;;11.13;7.90;;;14.10;99.90;;;;;;5022770;28;20075;-67
2022/05/20 00:52:28;;;;;;;10.60;7.93;;;14.10;99.90;;;;;;5025748;28;20494;-67
2022/05/20 00:55:02;;;;;;;8.55;7.57;;;14.10;99.90;;;;;;5063619;28;20049;-67
2022/05/20 00:57:35;;;;;;;11.77;7.72;;;14.00;99.90;;;;;;5025414;28;20049;-67
2022/05/20 01:00:11;;;;;;;9.85;7.63;;;14.00;99.90;;;;;;5024286;28;20056;-67
2022/05/20 01:02:38;;;;;;;9.23;6.88;;;14.00;99.90;;;;;;5027284;28;20053;-67
2022/05/20 01:05:15;;;;;;;9.65;6.70;;;13.90;99.90;;;;;;5029796;28;20109;-67
2022/05/20 01:07:41;;;;;;;8.27;6.22;;;14.00;99.90;;;;;;5028014;28;20037;-67
2022/05/20 01:10:08;;;;;;;7.30;6.10;;;13.90;99.90;;;;;;5030342;28;20049;-67
2022/05/20 01:12:34;;;;;;;10.18;6.78;;;14.00;99.90;;;;;;5009547;28;20107;-67
2022/05/20 01:15:00;;;;;;;7.03;5.95;;;13.90;99.90;;;;;;5007941;28;20069;-67
2022/05/20 01:17:27;;;;;;;7.78;5.72;;;13.90;99.90;;;;;;5008113;28;20102;-67
2022/05/20 01:19:56;;;;;;;9.88;6.30;;;13.90;99.90;;;;;;5007288;28;20038;-67
2022/05/20 01:22:40;;;;;;;8.25;6.38;;;13.90;99.90;;;;;;5000715;28;20077;-67
2022/05/20 01:25:09;;;;;;;8.50;6.03;;;14.10;99.90;;;;;;5004079;28;20053;-67
2022/05/20 01:27:42;;;;;;;6.78;5.75;;;13.90;99.90;;;;;;5003658;28;20050;-67
2022/05/20 01:30:13;;;;;;;7.53;5.78;;;13.90;99.90;;;;;;5007202;28;20498;-68
2022/05/20 01:32:39;;;;;;;7.32;5.20;;;13.80;99.90;;;;;;5022476;28;20045;-67
2022/05/20 01:35:10;;;;;;;10.38;5.10;;;13.90;99.90;;;;;;5008810;28;20053;-67
2022/05/20 01:37:36;;;;;;;10.73;5.35;;;14.00;99.90;;;;;;5007545;28;20048;-67
2022/05/20 01:40:02;;;;;;;8.50;4.75;;;14.00;99.90;;;;;;5011207;28;20053;-67
2022/05/20 01:42:37;;;;;;;9.35;5.00;;;14.10;99.90;;;;;;5007102;28;20061;-67
2022/05/20 01:45:18;;;;;;;8.57;5.30;;;14.00;99.90;;;;;;5022219;28;20045;-67
2022/05/20 01:48:02;;;;;;;7.78;5.15;;;13.80;99.90;;;;;;5006647;28;20065;-67
2022/05/20 01:50:35;;;;;;;8.50;5.10;;;13.60;99.90;;;;;;4991683;28;20125;-67
2022/05/20 01:53:17;;;;;;;11.13;5.15;;;13.70;99.90;;;;;;5022260;28;20050;-67
2022/05/20 01:56:11;;;;;;;10.65;6.22;;;13.70;99.90;;;;;;5018308;28;20046;-67
2022/05/20 01:58:59;;;;;;;10.65;6.20;;;13.50;99.90;;;;;;5002527;28;20045;-67
2022/05/20 02:01:33;;;;;;;8.60;6.00;;;13.60;99.90;;;;;;5002943;28;20110;-67
2022/05/20 02:04:23;;;;;;;8.35;6.72;;;13.50;99.90;;;;;;5009101;28;20056;-68
2022/05/20 02:06:54;;;;;;;9.20;6.20;;;13.50;99.90;;;;;;5010767;28;20046;-68
2022/05/20 02:09:31;;;;;;;9.93;6.90;;;13.50;99.90;;;;;;5014001;28;20077;-67
2022/05/20 02:11:57;;;;;;;7.10;6.13;;;13.40;99.90;;;;;;4999916;28;20445;-68
2022/05/20 02:14:45;;;;;;;9.27;6.60;;;13.40;99.90;;;;;;5007066;28;20053;-67
2022/05/20 02:17:15;;;;;;;9.38;6.43;;;13.30;99.90;;;;;;5010701;28;20057;-67
2022/05/20 02:20:08;;;;;;;10.23;7.40;;;13.20;99.90;;;;;;5010469;28;20049;-68
2022/05/20 02:22:38;;;;;;;10.68;6.72;;;13.10;99.90;;;;;;5012979;28;20045;-67
2022/05/20 02:25:06;;;;;;;8.75;6.53;;;13.00;99.90;;;;;;5027721;28;20096;-68
2022/05/20 02:27:39;;;;;;;9.13;6.72;;;13.00;99.90;;;;;;5029545;28;20077;-67
2022/05/20 02:30:09;;;;;;;10.98;7.30;;;13.10;99.90;;;;;;5029628;28;20041;-68
2022/05/20 02:32:52;;;;;;;9.00;7.72;;;13.00;99.90;;;;;;5026334;28;20093;-68
2022/05/20 02:35:18;;;;;;;11.38;8.30;;;12.90;99.90;;;;;;5029303;28;20463;-67
2022/05/20 02:37:44;;;;;;;10.13;7.50;;;12.80;99.90;;;;;;5047331;28;20492;-68
2022/05/20 02:40:13;;;;;;;10.55;7.70;;;12.80;99.90;;;;;;5026045;28;20046;-67
2022/05/20 02:42:38;;;;;;;9.15;8.20;;;12.90;99.90;;;;;;5028866;28;20037;-67
2022/05/20 02:45:05;;;;;;;12.18;8.27;;;12.70;99.90;;;;;;5029963;28;20056;-68
2022/05/20 02:47:32;;;;;;;13.55;9.20;;;12.80;99.90;;;;;;5029270;28;20429;-68
2022/05/20 02:50:04;;;;;;;10.20;9.05;;;12.80;99.90;;;;;;5029546;28;20064;-68
2022/05/20 02:52:29;;;;;;;11.80;9.55;;;12.80;99.90;;;;;;5029621;28;20057;-68
2022/05/20 02:54:55;;;;;;;11.55;10.30;;;12.80;99.90;;;;;;5028699;28;20128;-68
2022/05/20 02:57:21;;;;;;;11.10;9.98;;;12.80;99.90;;;;;;5029558;28;20075;-67
2022/05/20 03:05:17;;;;;;;15.50;12.45;;;12.90;99.90;;;;;;5015572;28;20054;-68
2022/05/20 03:07:42;;;;;;;14.10;12.55;;;12.70;99.90;;;;;;5046694;28;20049;-68
2022/05/20 03:10:09;;;;;;;14.27;12.00;;;12.70;99.90;;;;;;5012420;28;20038;-68
2022/05/20 03:12:35;;;;;;;19.05;12.90;;;12.70;99.90;;;;;;5043748;28;20079;-68
2022/05/20 03:15:07;;;;;;;16.15;12.05;;;12.70;99.90;;;;;;5045735;28;20046;-68
2022/05/20 03:17:33;;;;;;;13.63;12.18;;;12.60;99.90;;;;;;5041536;28;20050;-67
2022/05/20 03:19:59;;;;;;;16.15;12.45;;;12.50;99.90;;;;;;5033000;28;20053;-67
2022/05/20 03:22:25;;;;;;;12.93;11.55;;;12.50;99.90;;;;;;5026544;28;20045;-67
2022/05/20 03:24:51;;;;;;;15.68;11.30;;;12.40;99.90;;;;;;5028745;28;20046;-68
2022/05/20 03:27:17;;;;;;;14.40;11.02;;;12.50;99.90;;;;;;5030576;28;20045;-67
2022/05/20 03:29:46;;;;;;;15.80;11.73;;;12.50;99.90;;;;;;5046256;28;20046;-67
2022/05/20 03:32:12;;;;;;;17.30;11.32;;;12.40;99.90;;;;;;5025269;28;20073;-67
2022/05/20 03:34:40;;;;;;;16.55;12.35;;;12.60;99.90;;;;;;5035306;28;20050;-68
2022/05/20 03:37:06;;;;;;;15.10;12.10;;;12.40;99.90;;;;;;5024521;28;20130;-68
2022/05/20 03:39:32;;;;;;;13.95;10.70;;;12.40;99.90;;;;;;5028524;28;20046;-68
2022/05/20 03:41:58;;;;;;;11.43;10.05;;;12.50;99.90;;;;;;5026026;28;20076;-67
2022/05/20 03:44:24;;;;;;;13.70;12.00;;;12.40;99.90;;;;;;5028305;28;20053;-67
2022/05/20 03:46:52;;;;;;;12.63;10.82;;;12.60;99.90;;;;;;5014154;28;20067;-68
2022/05/20 03:49:20;;;;;;;16.05;11.32;;;12.50;99.90;;;;;;5023564;28;20049;-67
2022/05/20 03:51:47;;;;;;;14.60;11.93;;;12.40;99.90;;;;;;5028378;28;20516;-68
2022/05/20 03:54:15;;;;;;;13.07;11.30;;;12.30;99.90;;;;;;5032595;28;20045;-68
2022/05/20 03:56:41;;;;;;;13.18;11.80;;;12.40;99.90;;;;;;5023858;28;20049;-67
2022/05/20 03:59:08;;;;;;;12.60;10.63;;;12.30;99.90;;;;;;5017223;28;20060;-68
2022/05/20 04:04:20;;;;;;;13.63;9.82;;;12.30;99.90;;;;;;5061135;28;20084;-68
2022/05/20 04:06:46;;;;;;;12.60;10.80;;;12.30;99.90;;;;;;5029947;28;20060;-68
2022/05/20 04:09:12;;;;;;;11.45;10.23;;;12.30;99.90;;;;;;5014767;28;20096;-67
2022/05/20 04:11:38;;;;;;;13.00;10.93;;;12.40;99.90;;;;;;5043746;28;20076;-68
2022/05/20 04:14:04;;;;;;;13.02;10.73;;;12.40;99.90;;;;;;5031355;28;20063;-68
2022/05/20 04:16:30;;;;;;;11.90;10.60;;;12.40;99.90;;;;;;5028851;28;20056;-67
2022/05/20 04:18:56;;;;;;;12.98;11.27;;;12.40;99.90;;;;;;5023126;28;20129;-68
2022/05/20 04:21:22;;;;;;;13.50;11.48;;;12.50;99.90;;;;;;5027640;28;20080;-68
2022/05/20 04:23:48;;;;;;;16.88;12.25;;;12.50;99.90;;;;;;5028895;28;20048;-67
2022/05/20 04:26:14;;;;;;;15.52;13.60;;;12.60;99.90;;;;;;5031448;28;20060;-67
2022/05/20 04:28:40;;;;;;;15.55;13.10;;;12.60;99.90;;;;;;5029221;28;20052;-68
2022/05/20 04:31:08;;;;;;;16.73;12.15;;;12.70;99.90;;;;;;5030786;28;20045;-68
2022/05/20 04:33:34;;;;;;;16.02;12.48;;;12.70;99.90;;;;;;5045669;28;20072;-68
2022/05/20 04:36:00;;;;;;;14.48;12.05;;;12.70;99.90;;;;;;5023006;28;20041;-68
2022/05/20 04:38:26;;;;;;;14.95;11.93;;;12.70;99.90;;;;;;5031253;28;20054;-68
2022/05/20 04:49:06;;;;;;;16.17;12.15;;;12.90;99.90;;;;;;5039147;28;20132;-67
2022/05/20 04:51:33;;;;;;;18.00;13.50;;;12.70;99.90;;;;;;5042315;28;20042;-67
2022/05/20 04:56:43;;;;;;;15.65;12.65;;;12.70;99.90;;;;;;5025166;28;20098;-67
2022/05/20 04:59:08;;;;;;;18.48;12.70;;;12.70;99.90;;;;;;5022314;28;20128;-67
2022/05/20 05:01:34;;;;;;;23.08;13.98;;;12.70;99.90;;;;;;5025746;28;20048;-67
2022/05/20 05:04:00;;;;;;;17.15;12.80;;;12.70;99.90;;;;;;5030915;28;20045;-67
2022/05/20 05:06:25;;;;;;;16.67;12.38;;;12.70;99.90;;;;;;5045440;28;20056;-67
2022/05/20 05:08:51;;;;;;;18.90;13.07;;;12.70;99.90;;;;;;5010422;28;20043;-67
2022/05/20 05:11:17;;;;;;;20.98;13.50;;;12.80;99.90;;;;;;5024591;28;20060;-67
2022/05/20 05:13:42;;;;;;;16.65;12.27;;;12.80;99.90;;;;;;5026846;28;20061;-68
2022/05/20 05:16:09;;;;;;;17.02;12.65;;;12.80;99.90;;;;;;5024072;28;20053;-67
2022/05/20 05:18:36;;;;;;;17.65;13.00;;;12.90;99.90;;;;;;5025088;28;20037;-68
2022/05/20 05:21:02;;;;;;;15.48;12.90;;;13.00;99.90;;;;;;5026094;28;20420;-68
2022/05/20 05:23:28;;;;;;;17.42;12.55;;;13.00;99.90;;;;;;5026233;28;20540;-67
2022/05/20 05:25:54;;;;;;;16.15;12.38;;;13.10;99.90;;;;;;5026807;28;20045;-67
2022/05/20 05:28:20;;;;;;;16.13;13.48;;;13.00;99.90;;;;;;5040617;28;20063;-67
2022/05/20 05:30:51;;;;;;;17.10;12.23;;;13.20;99.90;;;;;;5026314;28;20045;-67
2022/05/20 05:33:19;;;;;;;16.13;11.95;;;13.20;99.90;;;;;;5022212;28;20053;-67
2022/05/20 05:35:45;;;;;;;15.02;11.65;;;13.20;99.90;;;;;;5023183;28;20076;-66
2022/05/20 05:38:11;;;;;;;16.48;12.50;;;13.30;99.90;;;;;;5025104;28;20041;-66
2022/05/20 05:40:39;;;;;;;16.40;12.55;;;13.30;99.90;;;;;;5029844;28;20052;-67
2022/05/20 05:43:06;;;;;;;14.77;12.27;;;13.30;99.90;;;;;;5025256;28;20052;-68
2022/05/20 05:45:34;;;;;;;16.80;12.60;;;13.40;99.90;;;;;;5026189;28;20651;-68
2022/05/20 05:48:06;;;;;;;17.85;12.93;;;13.50;99.90;;;;;;5043872;28;20041;-68
2022/05/20 05:50:34;;;;;;;18.35;14.43;;;13.50;99.90;;;;;;5025713;28;20049;-68
2022/05/20 05:53:26;;;;;;;18.30;13.63;;;13.60;99.90;;;;;;5046604;28;20053;-68
2022/05/20 05:55:58;;;;;;;16.63;13.25;;;13.50;99.90;;;;;;5044027;28;20050;-68
2022/05/20 05:58:26;;;;;;;17.38;12.80;;;13.50;99.90;;;;;;5045948;28;20068;-69
2022/05/20 06:00:54;;;;;;;18.38;12.20;;;13.70;99.90;;;;;;5027564;28;20041;-68
2022/05/20 06:03:20;;;;;;;21.13;12.40;;;13.60;99.90;;;;;;5046473;28;20057;-69
2022/05/20 06:05:47;;;;;;;16.23;11.52;;;13.70;99.90;;;;;;5038010;28;20063;-69
2022/05/20 06:08:13;;;;;;;15.10;11.43;;;13.70;99.90;;;;;;5027005;28;20087;-69
2022/05/20 06:10:39;;;;;;;14.68;11.80;;;13.70;99.90;;;;;;5046729;28;20037;-67
2022/05/20 06:13:06;;;;;;;21.13;11.48;;;13.80;99.90;;;;;;5047649;28;20049;-67
2022/05/20 06:15:32;;;;;;;15.68;11.00;;;13.80;99.90;;;;;;5027930;28;20121;-66
2022/05/20 06:17:58;;;;;;;14.05;10.45;;;13.90;99.90;;;;;;5029281;28;20077;-66
2022/05/20 06:20:25;;;;;;;15.93;9.98;;;14.00;99.90;;;;;;5029959;28;20045;-66
2022/05/20 06:22:51;;;;;;;13.00;8.52;;;14.10;99.90;;;;;;5029688;28;20045;-66
2022/05/20 06:25:17;;;;;;;15.05;10.05;;;14.10;99.90;;;;;;5021330;28;20107;-66
2022/05/20 06:27:44;;;;;;;13.27;8.82;;;14.20;99.90;;;;;;5029235;28;20041;-66
2022/05/20 06:30:13;;;;;;;13.05;9.10;;;14.10;99.90;;;;;;5029162;28;20060;-67
2022/05/20 06:32:39;;;;;;;10.55;8.13;;;14.20;99.90;;;;;;5040409;28;20117;-66
2022/05/20 06:40:35;;;;;;;13.18;7.38;;;14.30;99.90;;;;;;5043712;28;20250;-66
2022/05/20 06:43:01;;;;;;;12.60;7.10;;;14.40;99.90;;;;;;5018047;28;20068;-66
2022/05/20 06:45:31;;;;;;;10.88;6.63;;;14.50;99.90;;;;;;5037817;28;20041;-66
2022/05/20 06:47:56;;;;;;;11.30;7.18;;;14.60;99.90;;;;;;5042021;28;20433;-66
2022/05/20 06:50:22;;;;;;;12.13;7.95;;;14.80;99.90;;;;;;5009513;28;20068;-66
2022/05/20 06:52:48;;;;;;;12.63;8.05;;;14.80;99.90;;;;;;5026847;28;20065;-66
2022/05/20 06:55:13;;;;;;;12.80;7.78;;;15.10;99.90;;;;;;5010044;28;20084;-66
2022/05/20 06:57:39;;;;;;;12.48;7.53;;;15.10;99.90;;;;;;5010558;28;20121;-66
2022/05/20 07:00:10;;;;;;;9.93;6.43;;;15.40;99.90;;;;;;5009489;28;20105;-66
2022/05/20 07:02:36;;;;;;;10.85;6.10;;;15.30;99.90;;;;;;5008497;28;20120;-66
2022/05/20 07:05:04;;;;;;;13.05;6.20;;;15.20;99.90;;;;;;5026787;28;20099;-66
2022/05/20 07:07:31;;;;;;;10.20;7.63;;;15.30;99.90;;;;;;5021343;28;20053;-66
2022/05/20 07:09:56;;;;;;;13.35;8.10;;;15.30;99.90;;;;;;5028971;28;20386;-66
2022/05/20 07:12:22;;;;;;;12.38;8.30;;;15.30;99.90;;;;;;5046601;28;20064;-66
2022/05/20 07:14:48;;;;;;;12.18;7.30;;;15.40;99.90;;;;;;5046071;28;20068;-66
2022/05/20 07:17:20;;;;;;;13.35;7.68;;;15.40;99.90;;;;;;5026878;28;20042;-66
2022/05/20 07:19:46;;;;;;;10.77;7.32;;;15.40;99.90;;;;;;5040213;28;20087;-66
2022/05/20 07:22:13;;;;;;;9.63;7.15;;;15.50;99.90;;;;;;5045147;28;20128;-66
2022/05/20 07:24:39;;;;;;;12.32;6.53;;;15.50;99.90;;;;;;5028383;28;20060;-66
2022/05/20 07:27:05;;;;;;;11.38;6.25;;;15.40;99.90;;;;;;5023180;28;20098;-66
2022/05/20 07:29:31;;;;;;;12.18;7.55;;;15.40;99.90;;;;;;5028593;28;20049;-66
2022/05/20 07:31:57;;;;;;;10.43;7.53;;;15.40;99.90;;;;;;5028088;28;20117;-66
2022/05/20 07:34:22;;;;;;;8.93;6.63;;;15.50;99.90;;;;;;5027974;28;20112;-66
2022/05/20 07:36:48;;;;;;;11.48;6.32;;;15.50;99.90;;;;;;5024511;28;20042;-66
2022/05/20 07:39:14;;;;;;;13.32;7.30;;;15.60;99.90;;;;;;5044930;28;20049;-66
2022/05/20 07:41:39;;;;;;;12.50;6.50;;;15.50;99.90;;;;;;5045793;28;20041;-66
2022/05/20 07:44:05;;;;;;;10.10;6.63;;;15.50;99.90;;;;;;5045297;28;20057;-66
2022/05/20 07:46:31;;;;;;;10.57;6.05;;;15.50;99.90;;;;;;5045194;28;20053;-66
2022/05/20 07:48:57;;;;;;;9.63;6.18;;;15.70;99.90;;;;;;5017761;28;20097;-66
2022/05/20 07:51:26;;;;;;;10.45;6.25;;;15.60;99.90;;;;;;5017532;28;20049;-66
2022/05/20 07:54:00;;;;;;;11.40;7.53;;;15.60;99.90;;;;;;5049568;28;20077;-66
2022/05/20 07:56:54;;;;;;;11.85;6.25;;;15.70;99.90;;;;;;5021655;28;20105;-65
2022/05/20 07:59:27;;;;;;;14.80;7.05;;;15.80;99.90;;;;;;5016541;28;20054;-66
2022/05/20 08:01:54;;;;;;;12.50;6.93;;;15.90;99.90;;;;;;5016720;28;20060;-66
2022/05/20 08:05:01;;;;;;;9.25;6.22;;;15.80;99.90;;;;;;5027852;28;20075;-66
2022/05/20 08:07:41;;;;;;;11.35;5.88;;;15.90;99.90;;;;;;5026709;28;20077;-65
2022/05/20 08:10:19;;;;;;;10.52;6.03;;;15.90;99.90;;;;;;5023407;28;20077;-66
2022/05/20 08:12:45;;;;;;;11.02;6.85;;;16.00;99.90;;;;;;5043788;28;20068;-66
2022/05/20 08:15:12;;;;;;;9.00;6.45;;;16.20;99.90;;;;;;5013744;28;20045;-66
2022/05/20 08:17:40;;;;;;;9.30;7.30;;;16.30;99.90;;;;;;5020348;28;20057;-66
2022/05/20 08:20:09;;;;;;;11.18;7.50;;;16.30;99.90;;;;;;5004884;28;20042;-66
2022/05/20 08:22:36;;;;;;;11.87;7.63;;;16.40;99.90;;;;;;5010220;28;20041;-66
2022/05/20 08:25:03;;;;;;;9.98;7.13;;;16.50;99.90;;;;;;5026097;28;20827;-66
2022/05/20 08:27:30;;;;;;;10.20;6.88;;;16.70;99.90;;;;;;5009608;28;20064;-65
2022/05/20 08:29:57;;;;;;;9.55;7.15;;;16.80;99.90;;;;;;5024976;28;20076;-66
2022/05/20 08:32:23;;;;;;;12.25;7.55;;;16.90;99.90;;;;;;5044082;28;20053;-64
2022/05/20 08:34:50;;;;;;;9.57;8.07;;;16.90;99.90;;;;;;5026215;28;20042;-64
2022/05/20 08:37:17;;;;;;;12.05;8.20;;;17.00;99.90;;;;;;5025879;28;20045;-66
2022/05/20 08:39:43;;;;;;;9.07;8.10;;;17.10;99.90;;;;;;5043351;28;20047;-65
2022/05/20 08:42:19;;;;;;;8.77;7.57;;;17.10;99.90;;;;;;5026054;28;20048;-66
2022/05/20 08:44:46;;;;;;;10.52;8.00;;;17.10;99.90;;;;;;5027143;28;20045;-65
2022/05/20 08:47:26;;;;;;;10.05;9.00;;;17.10;99.90;;;;;;5027538;28;20411;-65
2022/05/20 08:49:57;;;;;;;10.40;8.90;;;17.10;99.90;;;;;;5041355;28;20038;-65
2022/05/20 08:52:23;;;;;;;10.48;8.30;;;17.00;99.90;;;;;;5043537;28;20139;-65
2022/05/20 08:54:49;;;;;;;10.45;9.32;;;17.00;99.90;;;;;;5025901;28;20045;-64
2022/05/20 08:57:28;;;;;;;11.13;9.98;;;17.10;99.90;;;;;;5010590;28;20421;-64
2022/05/20 08:59:54;;;;;;;14.03;9.97;;;17.00;99.90;;;;;;5043877;28;20536;-65
2022/05/20 09:02:21;;;;;;;10.10;9.10;;;17.10;99.90;;;;;;5025017;28;20328;-65
2022/05/20 09:04:48;;;;;;;15.23;9.55;;;17.20;99.90;;;;;;5043107;28;20052;-66
2022/05/20 09:07:16;;;;;;;9.80;8.77;;;17.30;99.90;;;;;;5028232;28;20618;-65
2022/05/20 09:09:51;;;;;;;11.20;9.70;;;17.50;99.90;;;;;;5022747;28;20118;-65
2022/05/20 09:12:35;;;;;;;9.23;8.35;;;17.50;99.90;;;;;;5035714;28;20067;-66
2022/05/20 09:18:18;;;;;;;8.48;7.30;;;17.50;99.90;;;;;;5024587;28;20084;-65
2022/05/20 09:20:51;;;;;;;9.97;7.33;;;17.50;99.90;;;;;;5038913;28;20072;-66
2022/05/20 09:23:20;;;;;;;8.30;7.22;;;17.50;99.90;;;;;;5010985;28;20042;-66
2022/05/20 09:26:01;;;;;;;9.43;6.87;;;17.50;99.90;;;;;;5008737;28;20054;-66
2022/05/20 09:29:12;;;;;;;11.23;7.15;;;17.70;99.90;;;;;;5016070;28;20054;-65
2022/05/20 09:31:48;;;;;;;7.93;6.65;;;17.90;99.90;;;;;;5033599;28;20053;-65
2022/05/20 09:34:26;;;;;;;7.82;6.70;;;18.00;99.90;;;;;;5015256;28;20121;-65
2022/05/20 09:37:09;;;;;;;8.05;6.72;;;18.10;99.90;;;;;;5022258;28;21358;-66
2022/05/20 09:39:41;;;;;;;8.32;6.53;;;18.00;99.90;;;;;;5026390;28;20096;-65
2022/05/20 09:42:16;;;;;;;10.18;6.88;;;18.10;99.90;;;;;;5024515;28;20048;-65
2022/05/20 09:44:51;;;;;;;8.65;6.70;;;18.20;99.90;;;;;;5023784;28;20038;-65
2022/05/20 09:47:48;;;;;;;7.85;7.03;;;18.40;99.90;;;;;;5008845;28;20057;-65
2022/05/20 09:50:33;;;;;;;8.25;6.20;;;18.50;99.90;;;;;;5024601;28;20046;-65
2022/05/20 09:53:10;;;;;;;7.60;6.47;;;18.50;99.90;;;;;;5022725;28;20116;-65
2022/05/20 09:55:43;;;;;;;8.23;6.45;;;18.70;99.90;;;;;;4999965;28;20041;-66
2022/05/20 09:58:27;;;;;;;13.05;6.95;;;18.70;99.90;;;;;;5023292;28;20068;-65
2022/05/20 10:00:59;;;;;;;11.73;6.40;;;18.90;99.90;;;;;;5012976;28;20045;-66
2022/05/20 10:03:37;;;;;;;9.23;6.63;;;18.90;99.90;;;;;;5012620;28;20054;-65
2022/05/20 10:06:26;;;;;;;7.72;5.90;;;19.00;99.90;;;;;;5018882;28;20057;-66
2022/05/20 10:09:24;;;;;;;7.07;5.82;;;19.00;99.90;;;;;;5028349;28;20056;-66
2022/05/20 10:12:01;;;;;;;8.65;6.45;;;19.10;99.90;;;;;;5036443;28;20109;-66
2022/05/20 10:15:00;;;;;;;7.22;5.82;;;19.20;99.90;;;;;;5025840;28;20049;-66
2022/05/20 10:17:42;;;;;;;7.20;5.35;;;19.30;99.90;;;;;;5025512;28;20099;-65
2022/05/20 10:20:08;;;;;;;7.65;6.22;;;19.40;99.90;;;;;;5043621;28;20060;-65
2022/05/20 10:22:50;;;;;;;7.47;6.32;;;19.30;99.90;;;;;;5042578;28;20120;-64
2022/05/20 10:25:44;;;;;;;9.20;6.70;;;19.30;99.90;;;;;;5028318;28;20140;-64
2022/05/20 10:34:11;;;;;;;7.72;6.32;;;19.50;99.90;;;;;;5057772;28;20060;-66
2022/05/20 10:36:56;;;;;;;7.97;5.25;;;19.50;99.90;;;;;;5026010;28;20073;-65
2022/05/20 10:39:36;;;;;;;6.72;5.07;;;19.60;99.90;;;;;;5039797;28;20076;-65
2022/05/20 10:42:51;;;;;;;9.82;6.20;;;19.70;99.90;;;;;;5026147;28;20041;-65
2022/05/20 10:48:37;;;;;;;7.38;6.20;;;19.80;99.90;;;;;;4964311;29;20055;-65
2022/05/20 10:51:04;;;;;;;10.35;6.55;;;19.70;99.90;;;;;;4948226;29;20057;-65
2022/05/20 10:53:45;;;;;;;5.75;5.10;;;19.90;99.90;;;;;;4950044;29;20047;-66
2022/05/20 10:56:48;;;;;;;7.15;5.30;;;20.10;99.90;;;;;;4950117;29;20110;-65
2022/05/20 10:59:17;;;;;;;5.25;4.53;;;20.40;99.90;;;;;;4948788;29;20043;-65
2022/05/20 11:02:20;;;;;;;7.57;5.90;;;20.30;99.90;;;;;;4966147;29;20580;-65
2022/05/20 11:04:58;;;;;;;9.43;6.45;;;20.30;99.90;;;;;;4949325;29;20539;-66
2022/05/20 11:08:02;;;;;;;6.43;5.68;;;20.40;99.90;;;;;;4965181;28;20062;-65
2022/05/20 11:10:40;;;;;;;6.32;5.10;;;20.50;99.90;;;;;;4966592;28;20162;-65
2022/05/20 11:13:33;;;;;;;8.38;6.00;;;20.50;99.90;;;;;;4949751;29;20055;-65
2022/05/20 11:16:12;;;;;;;6.85;5.00;;;20.60;99.90;;;;;;4960558;28;20062;-65
2022/05/20 11:18:39;;;;;;;;;;;20.60;99.90;;;;;;4971383;28;20078;-65
2022/05/20 11:21:38;;;;;;;5.90;4.20;;;20.40;99.90;;;;;;4981725;28;19921;-65
2022/05/20 11:24:13;;;;;;;7.20;4.93;;;20.50;99.90;;;;;;5024692;28;20037;-66
2022/05/20 11:27:01;;;;;;;7.30;4.90;;;20.60;99.90;;;;;;5033154;28;20076;-65
2022/05/20 11:29:40;;;;;;;8.05;5.95;;;20.60;99.90;;;;;;5027567;28;20050;-65
2022/05/20 11:32:10;;;;;;;7.30;6.47;;;20.80;99.90;;;;;;5026590;28;20041;-66
2022/05/20 11:34:54;;;;;;;6.35;5.75;;;21.00;99.90;;;;;;5059757;28;20104;-65
2022/05/20 11:37:54;;;;;;;6.10;5.50;;;21.00;99.90;;;;;;5022436;28;20049;-65
2022/05/20 11:40:57;;;;;;;6.38;5.15;;;21.10;99.90;;;;;;5024992;28;20053;-65
2022/05/20 11:43:41;;;;;;;5.95;5.20;;;21.00;99.90;;;;;;5044288;28;20053;-65
2022/05/20 11:46:38;;;;;;;6.45;5.35;;;20.90;99.90;;;;;;5028412;28;20080;-65
2022/05/20 11:49:13;;;;;;;6.28;4.55;;;21.00;99.90;;;;;;5029062;28;20120;-65
2022/05/20 11:51:49;;;;;;;9.25;6.22;;;21.10;99.90;;;;;;5021350;28;20045;-66
2022/05/20 11:54:30;;;;;;;7.07;6.15;;;21.20;99.90;;;;;;5023808;28;20057;-66
2022/05/20 11:57:06;;;;;;;7.43;6.63;;;21.20;99.90;;;;;;5029708;28;20115;-66
2022/05/20 12:00:07;;;;;;;12.57;6.45;;;21.40;99.90;;;;;;5055860;28;20489;-65
2022/05/20 12:02:41;;;;;;;7.15;5.80;;;21.50;99.90;;;;;;5027746;28;20119;-66
2022/05/20 12:05:11;;;;;;;7.95;6.97;;;21.60;99.90;;;;;;5012861;28;20042;-66
2022/05/20 12:07:37;;;;;;;;;;;21.60;99.90;;;;;;5030154;28;20402;-66
2022/05/20 12:10:30;;;;;;;7.13;5.82;;;21.70;99.90;;;;;;5047057;28;19924;-65
2022/05/20 12:13:25;;;;;;;7.85;6.47;;;21.70;99.90;;;;;;5029629;28;20057;-66
2022/05/20 12:16:16;;;;;;;11.15;10.05;;;21.70;99.90;;;;;;5029339;28;20142;-66
2022/05/20 12:24:51;;;;;;;16.05;13.98;;;21.70;99.90;;;;;;5026427;28;20056;-66
2022/05/20 12:27:25;;;;;;;15.18;13.77;;;21.60;99.90;;;;;;5026725;28;20049;-66
2022/05/20 12:30:07;;;;;;;16.60;15.00;;;21.50;99.90;;;;;;5027686;28;20049;-65
2022/05/20 12:32:35;;;;;;;20.27;18.23;;;21.60;99.90;;;;;;5024924;28;20076;-66
2022/05/20 12:35:18;;;;;;;17.25;15.65;;;21.80;99.90;;;;;;5043691;28;20127;-66
2022/05/20 12:37:46;;;;;;;19.75;17.85;;;21.70;99.90;;;;;;5026185;28;20060;-66
2022/05/20 12:40:18;;;;;;;19.40;17.60;;;21.70;99.90;;;;;;5026112;28;20057;-66
2022/05/20 12:42:59;;;;;;;18.25;16.48;;;21.80;99.90;;;;;;5027316;28;20080;-66
2022/05/20 12:45:27;;;;;;;18.27;16.48;;;21.70;99.90;;;;;;5039954;28;20049;-66
2022/05/20 12:47:54;;;;;;;16.60;15.10;;;21.80;99.90;;;;;;5025889;28;20105;-65
2022/05/20 12:50:26;;;;;;;17.77;16.02;;;21.90;99.90;;;;;;5026084;28;20088;-66
2022/05/20 12:52:58;;;;;;;18.05;16.25;;;21.70;99.90;;;;;;5024234;28;20057;-65
2022/05/20 12:55:30;;;;;;;18.90;17.10;;;21.70;99.90;;;;;;5043825;28;20124;-66
2022/05/20 12:57:59;;;;;;;21.55;17.08;;;21.80;99.90;;;;;;5025927;28;20042;-65
2022/05/20 13:00:48;;;;;;;17.63;16.02;;;21.80;99.90;;;;;;5026605;28;20052;-66
2022/05/20 13:03:30;;;;;;;16.70;15.05;;;21.60;99.90;;;;;;5026117;28;20555;-66
2022/05/20 13:06:09;;;;;;;16.55;14.95;;;21.30;99.90;;;;;;5043323;28;20048;-66
2022/05/20 13:08:51;;;;;;;16.10;14.57;;;21.30;99.90;;;;;;5026085;28;20050;-66
2022/05/20 13:11:19;;;;;;;17.58;15.77;;;21.30;99.90;;;;;;5039064;28;20045;-66
2022/05/20 13:13:49;;;;;;;15.80;14.17;;;21.40;99.90;;;;;;5023709;28;20516;-64
2022/05/20 13:16:15;;;;;;;;;;;21.30;99.90;;;;;;5031280;28;20092;-65
2022/05/20 13:18:43;;;;;;;14.95;13.35;;;21.10;99.90;;;;;;5036322;28;19922;-64
2022/05/20 13:21:18;;;;;;;13.43;12.13;;;20.90;99.90;;;;;;5039629;28;20054;-65
2022/05/20 13:23:47;;;;;;;11.82;10.65;;;20.90;99.90;;;;;;5042965;28;20168;-66
2022/05/20 13:26:26;;;;;;;12.05;10.43;;;20.90;99.90;;;;;;5026218;28;20056;-65
2022/05/20 13:28:58;;;;;;;13.00;10.13;;;20.70;99.90;;;;;;5010885;28;20045;-65
2022/05/20 13:31:25;;;;;;;10.80;9.07;;;20.70;99.90;;;;;;5026014;28;20041;-65
2022/05/20 13:33:51;;;;;;;9.77;8.63;;;20.50;99.90;;;;;;5026269;28;20097;-65
2022/05/20 13:36:22;;;;;;;8.30;7.45;;;20.50;99.90;;;;;;5026867;28;20064;-65
2022/05/20 13:38:58;;;;;;;8.00;7.20;;;20.40;99.90;;;;;;5029140;28;20057;-65
2022/05/20 13:41:27;;;;;;;9.00;7.65;;;20.40;99.90;;;;;;5031531;28;20383;-65
2022/05/20 13:43:54;;;;;;;8.00;7.20;;;20.40;99.90;;;;;;5012462;28;20102;-65
2022/05/20 13:49:13;;;;;;;10.95;7.93;;;20.20;99.90;;;;;;5010701;28;20053;-65
2022/05/20 13:51:58;;;;;;;9.10;8.07;;;20.20;99.90;;;;;;5013066;28;20080;-65